createdAt,value
2019-03-06T00:00:01.019Z,96089.32
2019-03-06T00:02:27.713Z,96091.16
2019-03-06T00:04:54.320Z,96086.66
2019-03-06T00:07:20.951Z,96082.15
2019-03-06T00:09:47.529Z,96083.06
2019-03-06T00:12:14.216Z,96084.70
2019-03-06T00:14:40.914Z,96085.63
2019-03-06T00:17:07.516Z,96083.48
2019-03-06T00:19:34.121Z,96085.63
2019-03-06T00:22:00.703Z,96086.14
2019-03-06T00:24:27.414Z,96087.16
2019-03-06T00:26:54.008Z,96080.81
2019-03-06T00:29:20.907Z,96079.06
2019-03-06T00:31:47.599Z,96070.36
2019-03-06T00:34:14.185Z,96078.96
2019-03-06T00:36:40.797Z,96075.23
2019-03-06T00:39:07.831Z,96078.20
2019-03-06T00:41:36.886Z,96080.56
2019-03-06T00:44:03.484Z,96084.56
2019-03-06T00:46:30.174Z,96084.05
2019-03-06T00:48:56.764Z,96067.25
2019-03-06T00:51:23.473Z,96064.31
2019-03-06T00:53:50.076Z,96069.64
2019-03-06T00:56:16.714Z,96078.96
2019-03-06T00:58:43.416Z,96067.91
2019-03-06T01:01:10.157Z,96069.85
2019-03-06T01:03:36.856Z,96076.92
2019-03-06T01:06:03.549Z,96079.39
2019-03-06T01:08:30.253Z,96075.02
2019-03-06T01:10:56.841Z,96068.56
2019-03-06T01:13:23.452Z,96063.75
2019-03-06T01:15:50.063Z,96068.67
2019-03-06T01:18:16.760Z,96067.75
2019-03-06T01:20:43.368Z,96070.11
2019-03-06T01:23:10.094Z,96069.29
2019-03-06T01:25:36.777Z,96057.41
2019-03-06T01:28:03.361Z,96061.70
2019-03-06T01:30:29.969Z,96053.11
2019-03-06T01:33:02.114Z,96047.17
2019-03-06T01:35:54.170Z,96053.31
2019-03-06T01:38:36.145Z,96052.59
2019-03-06T01:41:07.745Z,96046.25
2019-03-06T01:43:39.360Z,96043.98
2019-03-06T01:46:05.977Z,96030.16
2019-03-06T01:48:32.596Z,96037.64
2019-03-06T01:50:59.282Z,96036.82
2019-03-06T01:53:25.971Z,96032.52
2019-03-06T01:55:52.565Z,96038.36
2019-03-06T01:58:19.584Z,96038.27
2019-03-06T02:00:46.275Z,96030.48
2019-03-06T02:03:13.002Z,96036.93
2019-03-06T02:05:39.593Z,96024.23
2019-03-06T02:08:06.296Z,96035.30
2019-03-06T02:10:32.881Z,96028.34
2019-03-06T02:12:59.904Z,96025.09
2019-03-06T02:15:26.592Z,96027.55
2019-03-06T02:17:53.194Z,96027.56
2019-03-06T02:20:19.780Z,96024.11
2019-03-06T02:22:46.486Z,96029.64
2019-03-06T02:25:16.015Z,96025.64
2019-03-06T02:27:42.908Z,96034.78
2019-03-06T02:30:10.933Z,96029.45
2019-03-06T02:32:37.634Z,96028.02
2019-03-06T02:35:04.432Z,96031.00
2019-03-06T02:37:31.021Z,96033.76
2019-03-06T02:39:57.618Z,96029.25
2019-03-06T02:42:24.524Z,96030.91
2019-03-06T02:44:51.199Z,96024.75
2019-03-06T02:47:17.817Z,96027.41
2019-03-06T02:49:44.521Z,96016.03
2019-03-06T02:52:11.213Z,96016.86
2019-03-06T02:54:37.811Z,96004.28
2019-03-06T02:57:04.601Z,96002.84
2019-03-06T02:59:43.041Z,96007.53
2019-03-06T03:02:35.544Z,96011.30
2019-03-06T03:05:10.841Z,96009.78
2019-03-06T03:07:37.445Z,96010.69
2019-03-06T03:10:04.518Z,96006.48
2019-03-06T03:12:31.142Z,96005.74
2019-03-06T03:14:57.733Z,96005.63
2019-03-06T03:17:24.436Z,95999.61
2019-03-06T03:19:51.124Z,96003.25
2019-03-06T03:22:17.825Z,95997.91
2019-03-06T03:24:44.521Z,95995.69
2019-03-06T03:27:11.114Z,95992.09
2019-03-06T03:29:37.820Z,95978.70
2019-03-06T03:32:04.403Z,95984.72
2019-03-06T03:34:31.345Z,95984.61
2019-03-06T03:36:58.038Z,95981.33
2019-03-06T03:39:24.741Z,95983.67
2019-03-06T03:41:51.420Z,95983.66
2019-03-06T03:44:18.111Z,95986.28
2019-03-06T03:46:44.817Z,95979.41
2019-03-06T03:49:11.505Z,95979.61
2019-03-06T03:51:38.217Z,95979.10
2019-03-06T03:54:04.901Z,95979.10
2019-03-06T03:56:31.598Z,95976.13
2019-03-06T03:58:58.189Z,95974.81
2019-03-06T04:01:24.809Z,95977.66
2019-03-06T04:03:51.493Z,95975.83
2019-03-06T04:06:18.284Z,95974.41
2019-03-06T04:08:45.013Z,95970.12
2019-03-06T04:11:11.696Z,95971.64
2019-03-06T04:13:38.404Z,95964.38
2019-03-06T04:16:04.990Z,95965.09
2019-03-06T04:18:31.683Z,95962.13
2019-03-06T04:20:58.666Z,95959.47
2019-03-06T04:23:25.408Z,95962.52
2019-03-06T04:25:52.112Z,95958.61
2019-03-06T04:28:18.793Z,95963.28
2019-03-06T04:30:45.385Z,95963.90
2019-03-06T04:33:11.999Z,95961.44
2019-03-06T04:35:38.691Z,95961.95
2019-03-06T04:38:05.324Z,95950.33
2019-03-06T04:40:31.951Z,95945.96
2019-03-06T04:42:58.666Z,95947.38
2019-03-06T04:45:25.257Z,95952.52
2019-03-06T04:47:51.852Z,95948.47
2019-03-06T04:50:18.546Z,95938.48
2019-03-06T04:52:45.142Z,95943.28
2019-03-06T04:55:15.217Z,95932.94
2019-03-06T04:57:41.907Z,95941.29
2019-03-06T05:00:09.101Z,95941.05
2019-03-06T05:02:35.695Z,95939.22
2019-03-06T05:05:02.426Z,95940.04
2019-03-06T05:07:29.017Z,95932.70
2019-03-06T05:09:55.604Z,95928.14
2019-03-06T05:12:22.204Z,95932.47
2019-03-06T05:14:48.793Z,95929.63
2019-03-06T05:17:30.876Z,95926.38
2019-03-06T05:19:57.570Z,95923.65
2019-03-06T05:22:24.280Z,95917.52
2019-03-06T05:24:50.872Z,95926.41
2019-03-06T05:27:17.472Z,95923.05
2019-03-06T05:29:44.092Z,95927.14
2019-03-06T05:32:36.354Z,95929.09
2019-03-06T05:35:08.048Z,95929.20
2019-03-06T05:37:51.334Z,95927.56
2019-03-06T05:40:18.052Z,95925.84
2019-03-06T05:42:44.649Z,95919.31
2019-03-06T05:45:11.261Z,95914.63
2019-03-06T05:47:37.860Z,95915.75
2019-03-06T05:50:04.585Z,95915.55
2019-03-06T05:52:31.478Z,95906.37
2019-03-06T05:54:58.066Z,95903.72
2019-03-06T05:57:24.671Z,95901.06
2019-03-06T05:59:51.267Z,95900.44
2019-03-06T06:02:17.863Z,95907.98
2019-03-06T06:04:44.555Z,95905.93
2019-03-06T06:07:11.347Z,95908.08
2019-03-06T06:09:37.949Z,95912.97
2019-03-06T06:12:04.678Z,95901.34
2019-03-06T06:14:31.273Z,95900.33
2019-03-06T06:16:57.986Z,95895.59
2019-03-06T06:19:24.701Z,95888.36
2019-03-06T06:22:09.198Z,95879.11
2019-03-06T06:24:35.853Z,95875.20
2019-03-06T06:27:02.555Z,95875.80
2019-03-06T06:29:29.255Z,95875.80
2019-03-06T06:31:55.987Z,95880.66
2019-03-06T06:34:22.705Z,95868.42
2019-03-06T06:36:49.306Z,95872.52
2019-03-06T06:39:16.047Z,95873.86
2019-03-06T06:41:42.745Z,95880.30
2019-03-06T06:44:09.373Z,95872.08
2019-03-06T06:46:35.976Z,95867.47
2019-03-06T06:49:03.624Z,95870.37
2019-03-06T06:51:51.665Z,95864.96
2019-03-06T06:54:21.138Z,95859.30
2019-03-06T06:57:04.872Z,95861.23
2019-03-06T06:59:34.471Z,95849.35
2019-03-06T07:02:36.951Z,95839.80
2019-03-06T07:05:27.098Z,95843.67
2019-03-06T07:08:01.042Z,95830.84
2019-03-06T07:10:45.864Z,95837.95
2019-03-06T07:13:17.866Z,95845.91
2019-03-06T07:16:02.561Z,95831.41
2019-03-06T07:18:34.796Z,95820.48
2019-03-06T07:21:24.241Z,95808.75
2019-03-06T07:24:13.358Z,95805.53
2019-03-06T07:26:59.571Z,95812.76
2019-03-06T07:29:46.344Z,95813.23
2019-03-06T07:32:48.134Z,95804.49
2019-03-06T07:35:51.264Z,95796.47
2019-03-06T07:38:17.927Z,95812.87
2019-03-06T07:41:21.905Z,95819.09
2019-03-06T07:44:06.789Z,95811.53
2019-03-06T07:47:05.300Z,95806.55
2019-03-06T07:49:45.006Z,95808.61
2019-03-06T07:52:33.624Z,95804.39
2019-03-06T07:55:28.721Z,95808.09
2019-03-06T07:58:30.005Z,95811.53
2019-03-06T08:00:56.713Z,95806.44
2019-03-06T08:03:29.286Z,95801.51
2019-03-06T08:05:55.891Z,95802.52
2019-03-06T08:08:22.597Z,95792.84
2019-03-06T08:10:50.323Z,95791.94
2019-03-06T08:13:23.769Z,95791.14
2019-03-06T08:16:00.279Z,95790.97
2019-03-06T08:18:44.918Z,95789.84
2019-03-06T08:21:28.826Z,95785.14
2019-03-06T08:24:04.518Z,95782.50
2019-03-06T08:26:31.253Z,95783.55
2019-03-06T08:28:57.949Z,95780.22
2019-03-06T08:31:44.107Z,95784.13
2019-03-06T08:34:10.795Z,95776.00
2019-03-06T08:36:37.402Z,95765.83
2019-03-06T08:39:07.709Z,95768.73
2019-03-06T08:41:34.315Z,95763.91
2019-03-06T08:44:00.934Z,95749.22
2019-03-06T08:46:41.723Z,95745.27
2019-03-06T08:49:27.941Z,95747.95
2019-03-06T08:52:17.301Z,95749.58
2019-03-06T08:55:11.000Z,95741.23
2019-03-06T08:57:57.647Z,95740.88
2019-03-06T09:00:44.157Z,95733.22
2019-03-06T09:03:29.239Z,95728.00
2019-03-06T09:06:15.464Z,95730.58
2019-03-06T09:09:10.788Z,95735.91
2019-03-06T09:11:52.674Z,95737.36
2019-03-06T09:14:38.777Z,95731.23
2019-03-06T09:17:27.658Z,95726.47
2019-03-06T09:20:19.681Z,95727.59
2019-03-06T09:23:08.941Z,95720.86
2019-03-06T09:25:52.165Z,95725.05
2019-03-06T09:28:50.700Z,95721.65
2019-03-06T09:31:35.512Z,95716.28
2019-03-06T09:34:12.580Z,95702.58
2019-03-06T09:36:45.963Z,95706.00
2019-03-06T09:39:52.231Z,95691.92
2019-03-06T09:42:34.830Z,95694.70
2019-03-06T09:45:24.718Z,95692.92
2019-03-06T09:47:56.809Z,95690.83
2019-03-06T09:50:28.562Z,95687.27
2019-03-06T09:53:11.272Z,95683.71
2019-03-06T09:55:59.306Z,95681.20
2019-03-06T09:58:51.236Z,95668.85
2019-03-06T10:01:37.033Z,95668.09
2019-03-06T10:04:23.235Z,95666.08
2019-03-06T10:07:16.088Z,95657.88
2019-03-06T10:09:47.812Z,95654.52
2019-03-06T10:12:27.579Z,95651.13
2019-03-06T10:15:11.123Z,95653.55
2019-03-06T10:17:55.251Z,95647.67
2019-03-06T10:20:25.449Z,95638.54
2019-03-06T10:22:51.262Z,95629.70
2019-03-06T10:25:17.934Z,95627.67
2019-03-06T10:27:44.968Z,95625.03
2019-03-06T10:30:12.240Z,95619.41
2019-03-06T10:32:39.342Z,95613.50
2019-03-06T10:35:06.099Z,95605.46
2019-03-06T10:37:32.835Z,95601.19
2019-03-06T10:39:59.549Z,95600.92
2019-03-06T10:42:26.254Z,95596.67
2019-03-06T10:44:52.961Z,95597.55
2019-03-06T10:47:19.661Z,95592.48
2019-03-06T10:49:46.401Z,95591.71
2019-03-06T10:52:13.091Z,95589.83
2019-03-06T10:54:44.597Z,95588.22
2019-03-06T10:57:08.623Z,95581.53
2019-03-06T10:59:35.538Z,95572.39
2019-03-06T11:02:02.270Z,95562.95
2019-03-06T11:04:54.705Z,95561.27
2019-03-06T11:07:21.440Z,95560.67
2019-03-06T11:09:48.145Z,95553.59
2019-03-06T11:12:14.902Z,95551.13
2019-03-06T11:14:41.607Z,95546.45
2019-03-06T11:17:08.320Z,95536.66
2019-03-06T11:19:35.311Z,95525.92
2019-03-06T11:22:02.013Z,95524.17
2019-03-06T11:24:28.721Z,95512.81
2019-03-06T11:26:55.423Z,95512.80
2019-03-06T11:29:22.135Z,95510.72
2019-03-06T11:31:48.843Z,95514.05
2019-03-06T11:34:15.585Z,95506.02
2019-03-06T11:36:42.280Z,95502.82
2019-03-06T11:39:09.900Z,95503.13
2019-03-06T11:41:37.098Z,95495.72
2019-03-06T11:44:03.796Z,95486.75
2019-03-06T11:46:30.484Z,95482.73
2019-03-06T11:48:57.115Z,95481.66
2019-03-06T11:51:23.936Z,95479.36
2019-03-06T11:53:50.628Z,95465.58
2019-03-06T11:56:17.328Z,95462.34
2019-03-06T11:58:44.045Z,95461.17
2019-03-06T12:01:13.271Z,95453.19
2019-03-06T12:03:41.978Z,95447.86
2019-03-06T12:06:08.500Z,95440.64
2019-03-06T12:08:35.246Z,95436.77
2019-03-06T12:11:01.987Z,95430.91
2019-03-06T12:13:28.700Z,95431.20
2019-03-06T12:15:55.404Z,95426.18
2019-03-06T12:18:22.438Z,95420.46
2019-03-06T12:20:49.131Z,95426.44
2019-03-06T12:23:15.876Z,95416.80
2019-03-06T12:25:42.571Z,95420.64
2019-03-06T12:28:09.693Z,95420.38
2019-03-06T12:30:36.718Z,95418.11
2019-03-06T12:33:03.393Z,95419.28
2019-03-06T12:35:30.405Z,95416.23
2019-03-06T12:37:57.086Z,95409.23
2019-03-06T12:40:23.814Z,95405.97
2019-03-06T12:42:50.533Z,95391.26
2019-03-06T12:45:17.258Z,95388.81
2019-03-06T12:47:44.732Z,95387.56
2019-03-06T12:50:13.465Z,95384.74
2019-03-06T12:52:40.171Z,95375.33
2019-03-06T12:55:07.521Z,95374.56
2019-03-06T12:57:34.221Z,95371.36
2019-03-06T13:00:00.918Z,95377.60
2019-03-06T13:02:27.623Z,95361.31
2019-03-06T13:04:54.332Z,95359.02
2019-03-06T13:07:21.049Z,95346.70
2019-03-06T13:09:47.869Z,95338.19
2019-03-06T13:12:14.603Z,95349.91
2019-03-06T13:14:41.335Z,95344.37
2019-03-06T13:17:08.061Z,95335.54
2019-03-06T13:19:34.759Z,95329.37
2019-03-06T13:22:10.656Z,95318.59
2019-03-06T13:24:29.910Z,95313.23
2019-03-06T13:26:58.077Z,95305.17
2019-03-06T13:29:25.904Z,95302.75
2019-03-06T13:31:52.677Z,95298.92
2019-03-06T13:34:38.813Z,95298.03
2019-03-06T13:37:05.526Z,95290.55
2019-03-06T13:39:32.645Z,95291.66
2019-03-06T13:41:59.332Z,95292.92
2019-03-06T13:44:26.061Z,95276.28
2019-03-06T13:46:52.781Z,95275.19
2019-03-06T13:49:19.496Z,95272.48
2019-03-06T13:51:46.187Z,95268.33
2019-03-06T13:54:12.901Z,95268.39
2019-03-06T13:56:39.621Z,95263.92
2019-03-06T13:59:14.737Z,95265.88
2019-03-06T14:01:41.457Z,95261.91
2019-03-06T14:04:08.216Z,95255.85
2019-03-06T14:06:34.965Z,95256.77
2019-03-06T14:09:01.672Z,95254.98
2019-03-06T14:11:28.295Z,95247.68
2019-03-06T14:13:55.027Z,95239.73
2019-03-06T14:16:21.732Z,95232.34
2019-03-06T14:18:48.474Z,95236.59
2019-03-06T14:21:15.190Z,95221.20
2019-03-06T14:23:41.900Z,95225.58
2019-03-06T14:26:08.586Z,95232.95
2019-03-06T14:28:35.316Z,95221.09
2019-03-06T14:31:02.033Z,95216.58
2019-03-06T14:33:29.076Z,95219.28
2019-03-06T14:35:55.797Z,95203.89
2019-03-06T14:38:22.496Z,95209.33
2019-03-06T14:40:49.249Z,95194.43
2019-03-06T14:43:15.980Z,95180.10
2019-03-06T14:45:42.692Z,95182.00
2019-03-06T14:48:09.410Z,95178.98
2019-03-06T14:50:36.142Z,95178.05
2019-03-06T14:53:03.456Z,95173.09
2019-03-06T14:55:30.345Z,95167.09
2019-03-06T14:57:57.058Z,95171.16
2019-03-06T15:00:23.771Z,95163.07
2019-03-06T15:02:50.510Z,95159.85
2019-03-06T15:08:12.025Z,95153.13
2019-03-06T15:10:42.860Z,95159.63
2019-03-06T15:13:13.361Z,95153.00
2019-03-06T15:15:40.351Z,95149.30
2019-03-06T15:18:10.605Z,95141.05
2019-03-06T15:20:42.287Z,95131.20
2019-03-06T15:23:09.020Z,95141.55
2019-03-06T15:25:35.750Z,95144.11
2019-03-06T15:28:02.474Z,95146.44
2019-03-06T15:30:29.197Z,95144.37
2019-03-06T15:32:55.921Z,95144.53
2019-03-06T15:35:22.662Z,95145.69
2019-03-06T15:37:49.372Z,95137.41
2019-03-06T15:45:44.295Z,95128.19
2019-03-06T15:48:11.007Z,95130.98
2019-03-06T15:50:37.725Z,95129.98
2019-03-06T15:53:04.458Z,95125.41
2019-03-06T15:58:26.007Z,95126.93
2019-03-06T16:00:52.761Z,95125.28
2019-03-06T16:03:19.482Z,95124.73
2019-03-06T16:05:46.161Z,95117.17
2019-03-06T16:08:12.882Z,95112.42
2019-03-06T16:10:39.703Z,95107.18
2019-03-06T16:13:06.411Z,95114.31
2019-03-06T16:15:33.115Z,95108.28
2019-03-06T16:18:00.056Z,95101.86
2019-03-06T16:20:26.781Z,95103.06
2019-03-06T16:22:53.500Z,95097.02
2019-03-06T16:25:20.169Z,95104.56
2019-03-06T16:27:46.888Z,95102.56
2019-03-06T16:30:14.057Z,95087.27
2019-03-06T16:32:40.805Z,95086.09
2019-03-06T16:35:07.541Z,95077.78
2019-03-06T16:37:34.230Z,95074.20
2019-03-06T16:40:00.947Z,95068.55
2019-03-06T16:42:27.655Z,95065.00
2019-03-06T16:44:54.413Z,95067.08
2019-03-06T16:47:32.768Z,95066.70
2019-03-06T16:49:59.476Z,95078.41
2019-03-06T16:52:26.215Z,95076.34
2019-03-06T16:54:52.964Z,95087.19
2019-03-06T16:57:19.707Z,95092.09
2019-03-06T16:59:46.413Z,95091.87
2019-03-06T17:02:21.390Z,95084.64
2019-03-06T17:04:48.089Z,95086.52
2019-03-06T17:07:14.823Z,95076.87
2019-03-06T17:09:41.517Z,95082.50
2019-03-06T17:12:08.238Z,95080.09
2019-03-06T17:14:34.932Z,95073.91
2019-03-06T17:17:09.736Z,95077.64
2019-03-06T17:19:36.457Z,95074.96
2019-03-06T17:22:03.167Z,95073.09
2019-03-06T17:24:29.854Z,95068.49
2019-03-06T17:26:56.560Z,95065.00
2019-03-06T17:29:23.310Z,95070.87
2019-03-06T17:31:50.038Z,95059.56
2019-03-06T17:34:16.754Z,95061.72
2019-03-06T17:36:43.462Z,95059.28
2019-03-06T17:39:10.337Z,95055.50
2019-03-06T17:41:37.062Z,95059.81
2019-03-06T17:44:03.822Z,95060.05
2019-03-06T17:46:30.502Z,95059.48
2019-03-06T17:48:57.216Z,95065.09
2019-03-06T17:51:35.422Z,95065.09
2019-03-06T17:54:02.112Z,95066.67
2019-03-06T17:56:28.837Z,95061.81
2019-03-06T17:58:55.570Z,95056.96
2019-03-06T18:01:22.300Z,95057.99
2019-03-06T18:04:08.466Z,95057.69
2019-03-06T18:06:35.158Z,95057.89
2019-03-06T18:09:01.864Z,95050.33
2019-03-06T18:11:28.584Z,95048.42
2019-03-06T18:13:55.311Z,95048.92
2019-03-06T18:16:22.034Z,95047.28
2019-03-06T18:18:48.776Z,95046.45
2019-03-06T18:21:15.488Z,95046.72
2019-03-06T18:23:42.196Z,95046.95
2019-03-06T18:26:08.913Z,95053.08
2019-03-06T18:28:35.640Z,95053.33
2019-03-06T18:31:02.350Z,95050.09
2019-03-06T18:33:29.062Z,95046.31
2019-03-06T18:35:55.773Z,95035.19
2019-03-06T18:38:22.491Z,95039.08
2019-03-06T18:40:49.235Z,95040.26
2019-03-06T18:43:15.984Z,95043.94
2019-03-06T18:45:42.712Z,95043.86
2019-03-06T18:48:09.470Z,95037.88
2019-03-06T18:50:36.218Z,95027.31
2019-03-06T18:53:02.954Z,95029.10
2019-03-06T18:55:29.664Z,95025.26
2019-03-06T18:58:04.501Z,95034.77
2019-03-06T19:00:31.223Z,95031.22
2019-03-06T19:02:58.031Z,95022.31
2019-03-06T19:05:27.918Z,95020.33
2019-03-06T19:07:54.660Z,95024.02
2019-03-06T19:10:21.402Z,95019.62
2019-03-06T19:12:48.311Z,95016.34
2019-03-06T19:15:15.886Z,95017.12
2019-03-06T19:17:42.607Z,95018.14
2019-03-06T19:20:09.359Z,95012.73
2019-03-06T19:22:36.128Z,95008.41
2019-03-06T19:25:02.873Z,95002.51
2019-03-06T19:27:29.584Z,94995.73
2019-03-06T19:29:56.343Z,94997.77
2019-03-06T19:32:23.357Z,95000.94
2019-03-06T19:34:50.189Z,95001.65
2019-03-06T19:37:16.930Z,94999.96
2019-03-06T19:39:43.677Z,94992.44
2019-03-06T19:42:10.393Z,94998.77
2019-03-06T19:44:37.136Z,94999.46
2019-03-06T19:47:03.864Z,94990.08
2019-03-06T19:49:30.594Z,94991.89
2019-03-06T19:51:57.478Z,94990.00
2019-03-06T19:54:24.226Z,94991.30
2019-03-06T19:56:50.951Z,94991.26
2019-03-06T19:59:17.680Z,94987.69
2019-03-06T20:01:44.375Z,94978.45
2019-03-06T20:04:11.143Z,94974.56
2019-03-06T20:06:37.885Z,94967.73
2019-03-06T20:09:18.409Z,94966.01
2019-03-06T20:11:45.135Z,94972.71
2019-03-06T20:14:11.911Z,94969.73
2019-03-06T20:16:38.651Z,94964.65
2019-03-06T20:19:05.419Z,94964.14
2019-03-06T20:21:32.157Z,94956.17
2019-03-06T20:23:58.895Z,94951.98
2019-03-06T20:26:25.723Z,94950.67
2019-03-06T20:28:52.447Z,94941.41
2019-03-06T20:31:19.194Z,94945.53
2019-03-06T20:33:45.903Z,94938.25
2019-03-06T20:36:12.673Z,94938.38
2019-03-06T20:38:39.401Z,94936.47
2019-03-06T20:41:06.152Z,94937.47
2019-03-06T20:43:32.897Z,94942.72
2019-03-06T20:45:59.749Z,94944.78
2019-03-06T20:48:26.484Z,94941.53
2019-03-06T20:50:53.214Z,94941.25
2019-03-06T20:53:19.932Z,94942.58
2019-03-06T20:55:46.645Z,94944.39
2019-03-06T20:58:13.400Z,94942.25
2019-03-06T21:00:40.127Z,94934.02
2019-03-06T21:03:06.841Z,94928.97
2019-03-06T21:05:33.551Z,94929.77
2019-03-06T21:08:00.281Z,94928.16
2019-03-06T21:10:26.988Z,94927.59
2019-03-06T21:13:02.194Z,94932.55
2019-03-06T21:18:23.506Z,94923.73
2019-03-06T21:20:50.241Z,94919.70
2019-03-06T21:23:17.007Z,94911.38
2019-03-06T21:25:43.765Z,94916.41
2019-03-06T21:28:10.508Z,94912.89
2019-03-06T21:30:38.306Z,94902.19
2019-03-06T21:33:05.014Z,94903.47
2019-03-06T21:35:31.750Z,94904.61
2019-03-06T21:37:58.476Z,94895.28
2019-03-06T21:40:25.224Z,94895.28
2019-03-06T21:42:52.042Z,94897.38
2019-03-06T21:45:18.800Z,94900.00
2019-03-06T21:47:45.547Z,94900.80
2019-03-06T21:50:12.305Z,94891.19
2019-03-06T21:52:39.056Z,94890.14
2019-03-06T21:55:06.712Z,94888.53
2019-03-06T21:57:33.546Z,94888.81
2019-03-06T22:00:10.346Z,94894.71
2019-03-06T22:02:37.050Z,94888.90
2019-03-06T22:05:03.869Z,94891.84
2019-03-06T22:07:30.631Z,94894.52
2019-03-06T22:09:57.342Z,94897.14
2019-03-06T22:12:24.041Z,94894.14
2019-03-06T22:14:50.739Z,94891.72
2019-03-06T22:17:17.526Z,94901.28
2019-03-06T22:19:44.262Z,94911.14
2019-03-06T22:22:10.973Z,94891.39
2019-03-06T22:24:37.674Z,94899.38
2019-03-06T22:27:04.408Z,94908.95
2019-03-06T22:29:31.100Z,94894.80
2019-03-06T22:31:57.813Z,94892.86
2019-03-06T22:34:24.828Z,94885.05
2019-03-06T22:36:51.669Z,94893.53
2019-03-06T22:39:18.366Z,94881.67
2019-03-06T22:41:45.129Z,94893.66
2019-03-06T22:44:11.848Z,94889.66
2019-03-06T22:46:38.571Z,94883.00
2019-03-06T22:49:05.279Z,94882.52
2019-03-06T22:51:31.994Z,94884.68
2019-03-06T22:53:58.789Z,94878.87
2019-03-06T22:56:25.505Z,94880.48
2019-03-06T22:58:52.210Z,94883.20
2019-03-06T23:01:20.803Z,94881.06
2019-03-06T23:03:47.503Z,94882.72
2019-03-06T23:06:14.197Z,94880.34
2019-03-06T23:08:40.816Z,94868.64
2019-03-06T23:11:07.608Z,94871.34
2019-03-06T23:13:34.361Z,94866.30
2019-03-06T23:16:01.059Z,94858.31
2019-03-06T23:18:27.769Z,94855.13
2019-03-06T23:20:54.495Z,94848.41
2019-03-06T23:23:21.193Z,94842.52
2019-03-06T23:25:47.933Z,94843.84
2019-03-06T23:28:15.801Z,94835.28
2019-03-06T23:30:42.412Z,94833.91
2019-03-06T23:33:09.113Z,94840.61
2019-03-06T23:35:35.817Z,94834.80
2019-03-06T23:38:02.419Z,94829.00
2019-03-06T23:40:29.112Z,94827.23
2019-03-06T23:42:55.748Z,94829.20
2019-03-06T23:45:22.734Z,94815.97
2019-03-06T23:47:49.461Z,94813.14
2019-03-06T23:50:16.168Z,94814.02
2019-03-06T23:53:03.932Z,94808.73
2019-03-06T23:55:31.160Z,94806.39
2019-03-06T23:57:57.880Z,94804.56
